createdAt,value
2019-02-17T00:00:04.139Z,101087.78
2019-02-17T00:05:08.475Z,101096.48
2019-02-17T00:10:12.706Z,101095.52
2019-02-17T00:15:17.318Z,101098.69
2019-02-17T00:20:21.366Z,101102.83
2019-02-17T00:25:25.389Z,101103.80
2019-02-17T00:30:29.603Z,101103.31
2019-02-17T00:35:33.745Z,101110.53
2019-02-17T00:40:37.927Z,101110.53
2019-02-17T00:45:42.108Z,101100.27
2019-02-17T00:50:46.208Z,101116.08
2019-02-17T00:55:50.245Z,101117.91
2019-02-17T01:00:56.116Z,101117.91
2019-02-17T01:06:00.298Z,101118.78
2019-02-17T01:11:04.558Z,101122.14
2019-02-17T01:16:08.605Z,101122.14
2019-02-17T01:21:12.648Z,101126.09
2019-02-17T01:26:16.777Z,101120.83
2019-02-17T01:31:20.974Z,101120.83
2019-02-17T01:36:25.034Z,101134.27
2019-02-17T01:41:29.185Z,101106.66
2019-02-17T01:46:33.400Z,101118.97
2019-02-17T01:51:37.574Z,101120.48
2019-02-17T01:56:41.679Z,101117.40
2019-02-17T02:01:45.789Z,101120.19
2019-02-17T02:06:49.881Z,101109.41
2019-02-17T02:11:53.918Z,101104.41
2019-02-17T02:16:57.932Z,101102.68
2019-02-17T02:22:02.022Z,101096.48
2019-02-17T02:27:06.186Z,101084.56
2019-02-17T02:32:10.288Z,101084.23
2019-02-17T02:37:14.334Z,101073.94
2019-02-17T02:42:18.325Z,101072.98
2019-02-17T02:47:22.456Z,101078.66
2019-02-17T02:52:26.657Z,101078.23
2019-02-17T02:57:30.712Z,101084.69
2019-02-17T03:02:34.761Z,101069.97
2019-02-17T03:07:38.891Z,101059.26
2019-02-17T03:12:43.071Z,101064.73
2019-02-17T03:17:47.133Z,101064.73
2019-02-17T03:22:51.262Z,101056.41
2019-02-17T03:27:55.437Z,101064.23
2019-02-17T03:32:59.488Z,101071.05
2019-02-17T03:38:03.547Z,101071.05
2019-02-17T03:43:07.693Z,101065.92
2019-02-17T03:48:11.729Z,101065.92
2019-02-17T03:53:15.771Z,101070.05
2019-02-17T03:58:19.987Z,101065.54
2019-02-17T04:03:24.014Z,101066.17
2019-02-17T04:08:28.033Z,101050.97
2019-02-17T04:13:32.219Z,101067.64
2019-02-17T04:18:36.430Z,101067.64
2019-02-17T04:23:40.522Z,101067.80
2019-02-17T04:28:44.521Z,101067.80
2019-02-17T04:33:48.614Z,101068.86
2019-02-17T04:38:52.673Z,101077.89
2019-02-17T04:43:56.716Z,101077.89
2019-02-17T04:49:00.831Z,101072.03
2019-02-17T04:54:04.955Z,101072.03
2019-02-17T04:59:09.153Z,101065.39
2019-02-17T05:04:13.186Z,101054.33
2019-02-17T05:09:17.300Z,101049.45
2019-02-17T05:14:21.379Z,101058.53
2019-02-17T05:19:25.560Z,101061.70
2019-02-17T05:24:29.592Z,101064.55
2019-02-17T05:29:33.794Z,101057.91
2019-02-17T05:34:37.853Z,101061.95
2019-02-17T05:39:41.865Z,101066.56
2019-02-17T05:44:46.059Z,101059.83
2019-02-17T05:49:50.263Z,101056.33
2019-02-17T05:54:54.355Z,101068.45
2019-02-17T05:59:58.411Z,101072.09
2019-02-17T06:05:02.627Z,101059.17
2019-02-17T06:10:07.914Z,101075.94
2019-02-17T06:15:11.929Z,101087.14
2019-02-17T06:20:15.941Z,101088.67
2019-02-17T06:25:20.217Z,101097.70
2019-02-17T06:30:24.281Z,101097.70
2019-02-17T06:35:28.393Z,101077.24
2019-02-17T06:40:32.409Z,101102.38
2019-02-17T06:45:36.495Z,101102.38
2019-02-17T06:50:40.515Z,101106.89
2019-02-17T06:55:51.989Z,101105.16
2019-02-17T07:00:58.006Z,101106.89
2019-02-17T07:06:19.705Z,101101.60
2019-02-17T07:11:23.761Z,101101.60
2019-02-17T07:16:27.793Z,101109.28
2019-02-17T07:21:31.812Z,101114.67
2019-02-17T07:26:35.811Z,101113.80
2019-02-17T07:31:48.071Z,101115.59
2019-02-17T07:36:52.123Z,101114.72
2019-02-17T07:41:56.210Z,101116.94
2019-02-17T07:47:00.273Z,101104.05
2019-02-17T07:52:04.449Z,101119.94
2019-02-17T07:57:08.543Z,101124.97
2019-02-17T08:02:12.658Z,101106.83
2019-02-17T08:07:16.732Z,101095.95
2019-02-17T08:12:20.768Z,101095.95
2019-02-17T08:17:24.848Z,101098.25
2019-02-17T08:22:28.956Z,101086.80
2019-02-17T08:27:33.105Z,101085.30
2019-02-17T08:32:37.329Z,101091.88
2019-02-17T08:37:41.478Z,101097.17
2019-02-17T08:42:45.591Z,101094.92
2019-02-17T08:47:49.776Z,101096.89
2019-02-17T08:52:53.999Z,101096.12
2019-02-17T08:57:58.053Z,101083.54
2019-02-17T09:03:02.100Z,101085.07
2019-02-17T09:08:06.234Z,101085.07
2019-02-17T09:13:10.277Z,101075.98
2019-02-17T09:18:14.491Z,101049.33
2019-02-17T09:23:18.532Z,101066.66
2019-02-17T09:28:22.580Z,101071.18
2019-02-17T09:33:26.648Z,101071.18
2019-02-17T09:38:30.724Z,101055.43
2019-02-17T09:43:34.843Z,101037.12
2019-02-17T09:48:38.977Z,101041.98
2019-02-17T09:53:43.180Z,101047.54
2019-02-17T09:58:47.373Z,101049.81
2019-02-17T10:03:51.492Z,101042.06
2019-02-17T10:08:55.642Z,101050.43
2019-02-17T10:13:59.898Z,101039.58
2019-02-17T10:19:04.251Z,101032.47
2019-02-17T10:24:08.420Z,101028.05
2019-02-17T10:29:12.691Z,101028.05
2019-02-17T10:34:16.900Z,101029.39
2019-02-17T10:39:21.120Z,101029.39
2019-02-17T10:44:25.203Z,101020.20
2019-02-17T10:49:29.458Z,101020.20
2019-02-17T10:54:33.632Z,100991.02
2019-02-17T10:59:37.815Z,101000.33
2019-02-17T11:04:41.909Z,100981.06
2019-02-17T11:09:46.101Z,100981.06
2019-02-17T11:14:50.967Z,100980.77
2019-02-17T11:19:55.223Z,100967.88
2019-02-17T11:24:59.467Z,100967.88
2019-02-17T11:30:05.536Z,100958.63
2019-02-17T11:35:10.664Z,100958.63
2019-02-17T11:40:14.971Z,100954.38
2019-02-17T11:45:19.168Z,100950.11
2019-02-17T11:50:23.343Z,100946.84
2019-02-17T11:55:27.434Z,100945.34
2019-02-17T12:00:31.573Z,100945.34
2019-02-17T12:05:35.623Z,100929.80
2019-02-17T12:10:39.658Z,100924.70
2019-02-17T12:15:43.781Z,100916.98
2019-02-17T12:21:05.497Z,100894.52
2019-02-17T12:26:14.027Z,100897.73
2019-02-17T12:31:25.017Z,100883.61
2019-02-17T12:36:29.359Z,100881.50
2019-02-17T12:41:33.652Z,100888.95
2019-02-17T12:46:37.834Z,100880.72
2019-02-17T12:51:42.027Z,100883.41
2019-02-17T12:56:46.158Z,100883.41
2019-02-17T13:01:50.379Z,100875.56
2019-02-17T13:06:54.561Z,100871.16
2019-02-17T13:11:58.706Z,100871.08
2019-02-17T13:17:02.807Z,100852.12
2019-02-17T13:22:07.040Z,100858.22
2019-02-17T13:27:11.303Z,100855.36
2019-02-17T13:32:15.517Z,100852.11
2019-02-17T13:37:19.648Z,100853.30
2019-02-17T13:42:24.000Z,100852.98
2019-02-17T13:47:28.145Z,100837.20
2019-02-17T13:52:32.309Z,100850.23
2019-02-17T13:57:36.482Z,100847.72
2019-02-17T14:02:40.738Z,100835.43
2019-02-17T14:07:44.948Z,100828.70
2019-02-17T14:12:49.071Z,100826.59
2019-02-17T14:17:53.300Z,100822.44
2019-02-17T14:22:57.566Z,100824.17
2019-02-17T14:28:01.701Z,100800.00
2019-02-17T14:33:05.791Z,100808.29
2019-02-17T14:38:09.894Z,100810.88
2019-02-17T14:43:14.004Z,100806.39
2019-02-17T14:48:18.133Z,100806.39
2019-02-17T14:53:22.211Z,100789.33
2019-02-17T14:58:26.255Z,100781.73
2019-02-17T15:03:30.274Z,100784.36
2019-02-17T15:08:34.331Z,100765.95
2019-02-17T15:13:38.588Z,100770.89
2019-02-17T15:18:42.955Z,100762.02
2019-02-17T15:23:47.033Z,100771.83
2019-02-17T15:28:51.645Z,100768.27
2019-02-17T15:33:55.899Z,100761.64
2019-02-17T15:38:59.945Z,100743.28
2019-02-17T15:44:04.118Z,100752.70
2019-02-17T15:49:08.272Z,100734.51
2019-02-17T15:54:12.347Z,100744.80
2019-02-17T15:59:16.382Z,100737.69
2019-02-17T16:04:28.254Z,100737.69
2019-02-17T16:09:26.343Z,100731.44
2019-02-17T16:14:30.489Z,100727.50
2019-02-17T16:19:34.546Z,100718.66
2019-02-17T16:24:38.756Z,100718.66
2019-02-17T16:29:43.003Z,100719.59
2019-02-17T16:34:47.170Z,100719.59
2019-02-17T16:39:51.217Z,100726.05
2019-02-17T16:44:55.242Z,100729.98
2019-02-17T16:49:59.386Z,100725.16
2019-02-17T16:55:03.742Z,100728.89
2019-02-17T17:00:09.965Z,100728.98
2019-02-17T17:05:14.421Z,100734.51
2019-02-17T17:10:18.627Z,100729.77
2019-02-17T17:15:22.795Z,100728.37
2019-02-17T17:20:26.945Z,100729.90
2019-02-17T17:25:31.161Z,100724.53
2019-02-17T17:30:35.380Z,100730.20
2019-02-17T17:35:39.549Z,100714.52
2019-02-17T17:40:43.646Z,100727.64
2019-02-17T17:45:47.786Z,100708.28
2019-02-17T17:50:51.942Z,100719.56
2019-02-17T17:55:56.007Z,100724.62
2019-02-17T18:01:00.151Z,100711.40
2019-02-17T18:06:04.330Z,100704.87
2019-02-17T18:11:08.441Z,100733.41
2019-02-17T18:16:12.589Z,100727.20
2019-02-17T18:21:16.652Z,100727.45
2019-02-17T18:26:20.824Z,100727.45
2019-02-17T18:31:25.154Z,100737.66
2019-02-17T18:36:29.311Z,100735.00
2019-02-17T18:41:33.451Z,100733.95
2019-02-17T18:46:37.640Z,100735.59
2019-02-17T18:51:41.979Z,100737.91
2019-02-17T18:56:46.081Z,100734.63
2019-02-17T19:01:50.237Z,100729.95
2019-02-17T19:06:54.462Z,100722.52
2019-02-17T19:11:58.600Z,100715.06
2019-02-17T19:17:02.670Z,100710.83
2019-02-17T19:22:06.854Z,100698.20
2019-02-17T19:27:10.923Z,100709.55
2019-02-17T19:32:16.265Z,100705.73
2019-02-17T19:37:20.491Z,100712.59
2019-02-17T19:42:24.625Z,100706.86
2019-02-17T19:47:28.702Z,100698.63
2019-02-17T19:52:32.750Z,100712.78
2019-02-17T19:57:36.836Z,100712.78
2019-02-17T20:02:58.563Z,100706.98
2019-02-17T20:08:02.760Z,100693.79
2019-02-17T20:13:08.411Z,100709.14
2019-02-17T20:18:12.675Z,100700.42
2019-02-17T20:23:16.819Z,100708.63
2019-02-17T20:28:32.469Z,100714.02
2019-02-17T20:33:26.766Z,100714.42
2019-02-17T20:38:30.830Z,100714.42
2019-02-17T20:43:34.928Z,100722.20
2019-02-17T20:48:39.019Z,100720.84
2019-02-17T20:53:43.125Z,100721.00
2019-02-17T20:58:47.186Z,100701.28
2019-02-17T21:03:51.482Z,100720.91
2019-02-17T21:08:55.519Z,100714.77
2019-02-17T21:13:59.579Z,100725.09
2019-02-17T21:19:03.693Z,100724.11
2019-02-17T21:24:07.749Z,100725.84
2019-02-17T21:29:11.792Z,100725.84
2019-02-17T21:34:15.843Z,100721.34
2019-02-17T21:39:19.923Z,100738.34
2019-02-17T21:44:23.993Z,100736.89
2019-02-17T21:49:28.040Z,100722.34
2019-02-17T21:54:32.255Z,100731.41
2019-02-17T21:59:36.301Z,100731.41
2019-02-17T22:04:40.351Z,100739.50
2019-02-17T22:09:44.429Z,100735.95
2019-02-17T22:14:48.477Z,100732.19
2019-02-17T22:19:52.605Z,100729.95
2019-02-17T22:24:56.650Z,100721.48
2019-02-17T22:30:00.697Z,100725.91
2019-02-17T22:35:05.262Z,100720.92
2019-02-17T22:40:09.851Z,100721.86
2019-02-17T22:45:14.078Z,100721.48
2019-02-17T22:50:18.121Z,100721.48
2019-02-17T22:55:22.189Z,100712.96
2019-02-17T23:00:53.143Z,100732.78
2019-02-17T23:05:57.394Z,100731.89
2019-02-17T23:11:01.554Z,100731.89
2019-02-17T23:16:05.895Z,100719.98
2019-02-17T23:21:10.146Z,100735.66
2019-02-17T23:26:14.207Z,100735.66
2019-02-17T23:31:18.321Z,100734.69
2019-02-17T23:36:23.234Z,100741.05
2019-02-17T23:41:27.326Z,100745.75
2019-02-17T23:46:31.503Z,100745.75
2019-02-17T23:51:35.833Z,100745.00
2019-02-17T23:56:40.131Z,100744.81
